Time;durP1;ratioP1;P1;durP2;ratioP2;P2;SDS_P1;SDS_P2;PMS_P1;PMS_P2;Temp;Humidity;BMP_temperature;BMP_pressure;BME280_temperature;BME280_humidity;BME280_pressure;Samples;Min_cycle;Max_cycle;Signal;HPM_P1;HPM_P2
2021/08/06 00:01:48;;;;;;;23.15;13.85;;;;;;;;;;5045499;28;20086;-58
2021/08/06 00:04:14;;;;;;;25.75;15.63;;;;;;;;;;5028805;28;20029;-59
2021/08/06 00:06:42;;;;;;;23.83;15.23;;;;;;;;;;5035907;28;20439;-60
2021/08/06 00:09:10;;;;;;;24.55;15.38;;;;;;;;;;5038131;28;20108;-59
2021/08/06 00:11:36;;;;;;;28.48;16.13;;;;;;;;;;5037386;28;20058;-59
2021/08/06 00:14:01;;;;;;;27.13;14.25;;;;;;;;;;5023219;28;20028;-59
2021/08/06 00:16:32;;;;;;;28.73;15.40;;;;;;;;;;5039612;28;20044;-60
2021/08/06 00:18:58;;;;;;;26.17;14.60;;;;;;;;;;5039546;28;20481;-60
2021/08/06 00:21:23;;;;;;;25.80;15.25;;;;;;;;;;5039454;28;20031;-60
2021/08/06 00:23:51;;;;;;;23.02;15.13;;;;;;;;;;5038791;28;20664;-59
2021/08/06 00:26:17;;;;;;;23.00;13.38;;;;;;;;;;5045378;28;20047;-59
2021/08/06 00:28:42;;;;;;;23.98;13.40;;;;;;;;;;5040434;28;20037;-59
2021/08/06 00:31:11;;;;;;;24.25;14.48;;;;;;;;;;5036746;28;20041;-59
2021/08/06 00:33:36;;;;;;;27.30;14.68;;;;;;;;;;5028554;28;20089;-60
2021/08/06 00:36:02;;;;;;;21.95;13.40;;;;;;;;;;5037016;28;20053;-60
2021/08/06 00:38:28;;;;;;;21.40;13.05;;;;;;;;;;5018462;28;20039;-60
2021/08/06 00:40:53;;;;;;;20.08;13.15;;;;;;;;;;5026087;28;20415;-61
2021/08/06 00:43:22;;;;;;;25.35;14.85;;;;;;;;;;5038122;28;20024;-60
2021/08/06 00:45:47;;;;;;;22.08;12.07;;;;;;;;;;5038040;28;20129;-61
2021/08/06 00:48:12;;;;;;;25.27;14.20;;;;;;;;;;5037526;28;20591;-60
2021/08/06 00:50:41;;;;;;;25.00;15.05;;;;;;;;;;5037744;28;20021;-59
2021/08/06 00:53:09;;;;;;;24.83;13.77;;;;;;;;;;5034198;28;20060;-60
2021/08/06 00:55:36;;;;;;;21.38;13.38;;;;;;;;;;5037742;28;20123;-60
2021/08/06 00:58:04;;;;;;;22.08;13.32;;;;;;;;;;5036178;28;20033;-60
2021/08/06 01:00:30;;;;;;;21.05;13.65;;;;;;;;;;5019579;28;20067;-60
2021/08/06 01:03:14;;;;;;;26.42;13.85;;;;;;;;;;5037111;28;20848;-60
2021/08/06 01:05:46;;;;;;;24.75;14.32;;;;;;;;;;5029013;28;20484;-59
2021/08/06 01:08:23;;;;;;;21.60;14.20;;;;;;;;;;5021151;28;20048;-59
2021/08/06 01:10:57;;;;;;;22.08;13.38;;;;;;;;;;5038483;28;20036;-59
2021/08/06 01:13:30;;;;;;;21.65;13.52;;;;;;;;;;5029786;28;20416;-59
2021/08/06 01:16:00;;;;;;;28.08;14.82;;;;;;;;;;5036220;28;20039;-59
2021/08/06 01:18:30;;;;;;;23.83;14.10;;;;;;;;;;5038942;28;20752;-60
2021/08/06 01:20:57;;;;;;;25.05;14.55;;;;;;;;;;5040584;28;20908;-59
2021/08/06 01:23:29;;;;;;;26.42;14.45;;;;;;;;;;5039007;28;20039;-61
2021/08/06 01:26:02;;;;;;;25.20;14.75;;;;;;;;;;5035697;28;20398;-60
2021/08/06 01:28:30;;;;;;;23.55;14.38;;;;;;;;;;5035622;28;20040;-60
2021/08/06 01:30:55;;;;;;;27.67;13.48;;;;;;;;;;5051446;28;20031;-60
2021/08/06 01:33:22;;;;;;;27.17;13.57;;;;;;;;;;5039280;28;20033;-61
2021/08/06 01:35:48;;;;;;;24.15;14.38;;;;;;;;;;5035413;28;20039;-60
2021/08/06 01:38:15;;;;;;;25.92;14.50;;;;;;;;;;5035172;28;20032;-60
2021/08/06 01:40:47;;;;;;;23.50;14.95;;;;;;;;;;5034799;28;20035;-60
2021/08/06 01:43:15;;;;;;;22.98;13.98;;;;;;;;;;5034026;28;20136;-59
2021/08/06 01:45:43;;;;;;;26.05;14.90;;;;;;;;;;5036217;28;20040;-59
2021/08/06 01:48:12;;;;;;;26.63;14.73;;;;;;;;;;5036934;28;20676;-59
2021/08/06 01:50:38;;;;;;;28.52;14.63;;;;;;;;;;5021196;28;20206;-59
2021/08/06 01:53:08;;;;;;;29.65;16.38;;;;;;;;;;5035702;28;20068;-59
2021/08/06 01:55:40;;;;;;;24.23;13.82;;;;;;;;;;5035872;28;20110;-60
2021/08/06 01:58:07;;;;;;;24.67;14.85;;;;;;;;;;5023832;28;20029;-61
2021/08/06 02:00:33;;;;;;;24.63;14.98;;;;;;;;;;5034746;28;20029;-60
2021/08/06 02:02:58;;;;;;;25.90;15.15;;;;;;;;;;5036624;28;20036;-60
2021/08/06 02:05:25;;;;;;;29.05;15.20;;;;;;;;;;5038062;28;20043;-60
2021/08/06 02:07:50;;;;;;;27.35;13.40;;;;;;;;;;5035531;28;20029;-61
2021/08/06 02:10:16;;;;;;;24.65;14.60;;;;;;;;;;5036951;28;20052;-61
2021/08/06 02:12:42;;;;;;;29.38;14.52;;;;;;;;;;5036739;28;20036;-60
2021/08/06 02:15:10;;;;;;;24.83;13.65;;;;;;;;;;5036806;28;20032;-61
2021/08/06 02:17:35;;;;;;;22.77;13.48;;;;;;;;;;5035237;28;20021;-61
2021/08/06 02:20:03;;;;;;;27.10;15.77;;;;;;;;;;5043713;28;20052;-61
2021/08/06 02:22:29;;;;;;;27.60;15.23;;;;;;;;;;5035231;28;21215;-61
2021/08/06 02:24:55;;;;;;;21.45;13.68;;;;;;;;;;5036116;28;20056;-61
2021/08/06 02:27:21;;;;;;;29.65;14.63;;;;;;;;;;5027334;28;20047;-61
2021/08/06 02:29:47;;;;;;;26.35;13.73;;;;;;;;;;5021474;28;20039;-61
2021/08/06 02:32:15;;;;;;;28.60;14.48;;;;;;;;;;5034909;28;20048;-61
2021/08/06 02:34:43;;;;;;;24.98;14.35;;;;;;;;;;5036753;28;20036;-60
2021/08/06 02:37:09;;;;;;;25.58;14.63;;;;;;;;;;5034745;28;20071;-60
2021/08/06 02:39:34;;;;;;;23.48;13.55;;;;;;;;;;5025769;28;20108;-60
2021/08/06 02:42:03;;;;;;;22.65;13.48;;;;;;;;;;5036669;28;20028;-59
2021/08/06 02:44:29;;;;;;;29.55;14.45;;;;;;;;;;5034671;28;20437;-59
2021/08/06 02:46:55;;;;;;;25.50;13.93;;;;;;;;;;5037211;28;20040;-60
2021/08/06 02:49:20;;;;;;;25.40;14.57;;;;;;;;;;5033711;28;20035;-59
2021/08/06 02:51:48;;;;;;;24.35;14.27;;;;;;;;;;5037529;28;20032;-59
2021/08/06 02:54:14;;;;;;;25.38;14.52;;;;;;;;;;5026507;28;20036;-60
2021/08/06 02:56:39;;;;;;;25.13;13.65;;;;;;;;;;5036092;28;20767;-60
2021/08/06 02:59:05;;;;;;;22.30;12.90;;;;;;;;;;5017948;28;20120;-59
2021/08/06 03:01:30;;;;;;;23.08;12.57;;;;;;;;;;5036167;28;20029;-60
2021/08/06 03:03:55;;;;;;;24.95;12.02;;;;;;;;;;5037874;28;20141;-61
2021/08/06 03:06:23;;;;;;;23.35;11.98;;;;;;;;;;5033783;28;20621;-59
2021/08/06 03:08:48;;;;;;;23.35;13.25;;;;;;;;;;5034319;28;20074;-60
2021/08/06 03:11:17;;;;;;;21.08;11.80;;;;;;;;;;5036110;28;20059;-60
2021/08/06 03:13:42;;;;;;;19.95;12.23;;;;;;;;;;5022156;28;20032;-60
2021/08/06 03:16:08;;;;;;;21.77;13.00;;;;;;;;;;5037423;28;20484;-59
2021/08/06 03:18:37;;;;;;;23.42;12.23;;;;;;;;;;5035358;28;20028;-59
2021/08/06 03:21:03;;;;;;;19.88;12.43;;;;;;;;;;5034215;28;20048;-60
2021/08/06 03:23:28;;;;;;;22.38;12.30;;;;;;;;;;5035316;28;20131;-60
2021/08/06 03:25:53;;;;;;;24.77;12.23;;;;;;;;;;5032437;28;20171;-60
2021/08/06 03:28:19;;;;;;;24.20;11.57;;;;;;;;;;5043456;28;20117;-60
2021/08/06 03:30:45;;;;;;;23.73;12.50;;;;;;;;;;5037367;28;20033;-60
2021/08/06 03:33:11;;;;;;;20.52;12.48;;;;;;;;;;5033851;28;20028;-60
2021/08/06 03:35:36;;;;;;;21.48;12.30;;;;;;;;;;5017529;28;20037;-60
2021/08/06 03:38:11;;;;;;;20.83;11.18;;;;;;;;;;5033043;28;20039;-59
2021/08/06 03:40:37;;;;;;;19.35;10.95;;;;;;;;;;5037595;28;20080;-59
2021/08/06 03:43:02;;;;;;;21.55;12.13;;;;;;;;;;5033318;28;20033;-58
2021/08/06 03:45:28;;;;;;;18.80;11.68;;;;;;;;;;5034318;28;20491;-59
2021/08/06 03:47:54;;;;;;;22.45;11.25;;;;;;;;;;5037248;28;20037;-59
2021/08/06 03:50:23;;;;;;;25.45;11.77;;;;;;;;;;5039924;28;20032;-59
2021/08/06 03:52:48;;;;;;;19.35;11.63;;;;;;;;;;5037499;28;20108;-59
2021/08/06 03:55:14;;;;;;;19.40;11.90;;;;;;;;;;5037664;28;20083;-59
2021/08/06 03:57:49;;;;;;;17.73;11.30;;;;;;;;;;5020069;28;20365;-60
2021/08/06 04:00:15;;;;;;;17.65;10.95;;;;;;;;;;5030483;28;20059;-60
2021/08/06 04:02:43;;;;;;;16.77;10.35;;;;;;;;;;5053354;28;20125;-60
2021/08/06 04:05:09;;;;;;;19.90;11.85;;;;;;;;;;5045143;28;20040;-60
2021/08/06 04:07:34;;;;;;;21.65;11.38;;;;;;;;;;5036622;28;20033;-60
2021/08/06 04:10:02;;;;;;;20.77;11.75;;;;;;;;;;5038341;28;20078;-60
2021/08/06 04:12:28;;;;;;;21.95;11.55;;;;;;;;;;5040831;28;20055;-59
2021/08/06 04:14:53;;;;;;;19.92;11.25;;;;;;;;;;5038255;28;20567;-60
2021/08/06 04:17:19;;;;;;;18.23;10.88;;;;;;;;;;5037272;28;20047;-60
2021/08/06 04:19:44;;;;;;;21.27;10.93;;;;;;;;;;5038970;28;20491;-59
2021/08/06 04:22:13;;;;;;;15.07;9.15;;;;;;;;;;5037161;28;20025;-60
2021/08/06 04:24:41;;;;;;;16.45;9.98;;;;;;;;;;5038641;28;20663;-60
2021/08/06 04:27:09;;;;;;;16.63;10.35;;;;;;;;;;5040105;28;20151;-60
2021/08/06 04:29:37;;;;;;;18.17;10.25;;;;;;;;;;5034003;28;20040;-60
2021/08/06 04:32:03;;;;;;;24.10;9.98;;;;;;;;;;5024421;28;20064;-60
2021/08/06 04:34:28;;;;;;;18.95;10.77;;;;;;;;;;5038992;28;20123;-60
2021/08/06 04:36:54;;;;;;;18.65;10.02;;;;;;;;;;5037600;28;20037;-60
2021/08/06 04:39:20;;;;;;;16.52;9.65;;;;;;;;;;5028121;28;20052;-60
2021/08/06 04:41:51;;;;;;;19.00;9.35;;;;;;;;;;5036840;28;20028;-60
2021/08/06 04:44:17;;;;;;;15.32;9.35;;;;;;;;;;5045511;28;20029;-60
2021/08/06 04:46:44;;;;;;;14.43;8.77;;;;;;;;;;5039294;28;20747;-60
2021/08/06 04:49:11;;;;;;;18.38;9.07;;;;;;;;;;5037659;28;20448;-60
2021/08/06 04:51:40;;;;;;;14.82;8.98;;;;;;;;;;5038084;28;20021;-61
2021/08/06 04:54:05;;;;;;;14.02;8.55;;;;;;;;;;5027343;28;20033;-61
2021/08/06 04:56:34;;;;;;;15.98;8.40;;;;;;;;;;5035498;28;20036;-60
2021/08/06 04:58:59;;;;;;;13.80;8.20;;;;;;;;;;5036057;28;20039;-60
2021/08/06 05:01:29;;;;;;;12.20;8.30;;;;;;;;;;5040248;28;20033;-61
2021/08/06 05:03:57;;;;;;;10.60;7.85;;;;;;;;;;5023192;28;20033;-60
2021/08/06 05:06:25;;;;;;;16.23;7.90;;;;;;;;;;5034811;28;20040;-61
2021/08/06 05:08:50;;;;;;;11.75;7.55;;;;;;;;;;5020772;28;20120;-60
2021/08/06 05:11:16;;;;;;;13.05;7.03;;;;;;;;;;5034754;28;20031;-59
2021/08/06 05:13:42;;;;;;;12.57;6.60;;;;;;;;;;5034664;28;20496;-60
2021/08/06 05:16:07;;;;;;;13.43;6.20;;;;;;;;;;5037531;28;20123;-61
2021/08/06 05:18:37;;;;;;;11.18;6.93;;;;;;;;;;5035813;28;20020;-61
2021/08/06 05:21:04;;;;;;;12.48;6.10;;;;;;;;;;5039274;28;20433;-61
2021/08/06 05:23:30;;;;;;;13.15;6.93;;;;;;;;;;5033889;28;20021;-60
2021/08/06 05:25:58;;;;;;;10.32;6.85;;;;;;;;;;5037496;28;20056;-61
2021/08/06 05:28:24;;;;;;;11.07;6.20;;;;;;;;;;5036433;28;20067;-61
2021/08/06 05:30:50;;;;;;;10.95;6.57;;;;;;;;;;5044572;28;20529;-61
2021/08/06 05:33:18;;;;;;;10.20;6.43;;;;;;;;;;5038569;28;20058;-61
2021/08/06 05:35:47;;;;;;;12.15;6.40;;;;;;;;;;5034630;28;20466;-61
2021/08/06 05:38:12;;;;;;;7.57;6.22;;;;;;;;;;5034467;28;20025;-60
2021/08/06 05:40:39;;;;;;;8.57;5.72;;;;;;;;;;5037883;28;20083;-61
2021/08/06 05:43:07;;;;;;;12.13;6.13;;;;;;;;;;5037307;28;20063;-61
2021/08/06 05:45:36;;;;;;;9.68;5.45;;;;;;;;;;5038369;28;20070;-60
2021/08/06 05:48:01;;;;;;;11.15;5.80;;;;;;;;;;5035860;28;20123;-60
2021/08/06 05:50:28;;;;;;;10.63;5.88;;;;;;;;;;5028341;28;20116;-60
2021/08/06 05:52:56;;;;;;;8.48;6.00;;;;;;;;;;5051136;28;21971;-60
2021/08/06 05:55:25;;;;;;;13.55;5.95;;;;;;;;;;5033905;28;20036;-60
2021/08/06 05:57:50;;;;;;;9.23;5.35;;;;;;;;;;5036775;28;21318;-60
2021/08/06 06:00:16;;;;;;;9.18;5.43;;;;;;;;;;5037742;28;20040;-59
2021/08/06 06:02:42;;;;;;;9.93;5.18;;;;;;;;;;5037711;28;20060;-62
2021/08/06 06:05:08;;;;;;;9.02;5.30;;;;;;;;;;5034447;28;20065;-60
2021/08/06 06:07:47;;;;;;;7.88;4.80;;;;;;;;;;5033043;28;20028;-60
2021/08/06 06:10:19;;;;;;;7.70;5.28;;;;;;;;;;5027186;28;20060;-60
2021/08/06 06:12:44;;;;;;;8.75;5.13;;;;;;;;;;5034529;28;20680;-61
2021/08/06 06:15:15;;;;;;;8.10;4.80;;;;;;;;;;5033874;28;20563;-59
2021/08/06 06:17:41;;;;;;;8.55;4.45;;;;;;;;;;5044179;28;20029;-61
2021/08/06 06:20:07;;;;;;;6.28;4.60;;;;;;;;;;5019732;28;20036;-60
2021/08/06 06:22:32;;;;;;;6.32;3.78;;;;;;;;;;5034679;28;20056;-60
2021/08/06 06:24:58;;;;;;;4.97;3.90;;;;;;;;;;5038178;28;20052;-61
2021/08/06 06:27:23;;;;;;;4.93;3.70;;;;;;;;;;5017918;28;20040;-61
2021/08/06 06:29:50;;;;;;;5.32;3.58;;;;;;;;;;5036698;28;20070;-61
2021/08/06 06:32:16;;;;;;;6.40;4.03;;;;;;;;;;5035944;28;20029;-61
2021/08/06 06:34:42;;;;;;;6.55;3.80;;;;;;;;;;5020812;28;22209;-61
2021/08/06 06:37:08;;;;;;;6.18;3.45;;;;;;;;;;5034804;28;20032;-61
2021/08/06 06:39:36;;;;;;;6.82;4.25;;;;;;;;;;5033573;28;20027;-60
2021/08/06 06:42:01;;;;;;;8.48;3.95;;;;;;;;;;5022099;28;20033;-60
2021/08/06 06:44:29;;;;;;;6.72;3.78;;;;;;;;;;5036422;28;20338;-61
2021/08/06 06:46:55;;;;;;;6.20;3.25;;;;;;;;;;5037770;28;20036;-60
2021/08/06 06:49:20;;;;;;;6.07;3.40;;;;;;;;;;5034857;28;20025;-60
2021/08/06 06:51:50;;;;;;;5.43;3.28;;;;;;;;;;5034233;28;20056;-60
2021/08/06 06:54:18;;;;;;;4.97;3.47;;;;;;;;;;5020071;28;20036;-60
2021/08/06 06:56:48;;;;;;;5.10;3.42;;;;;;;;;;5037516;28;20028;-60
2021/08/06 06:59:14;;;;;;;5.35;3.13;;;;;;;;;;5036486;28;20057;-61
2021/08/06 07:01:39;;;;;;;5.20;2.92;;;;;;;;;;5021915;28;20131;-61
2021/08/06 07:04:05;;;;;;;4.20;2.97;;;;;;;;;;5034643;28;20037;-61
2021/08/06 07:06:36;;;;;;;6.30;2.90;;;;;;;;;;5035751;28;20032;-61
2021/08/06 07:09:06;;;;;;;3.83;3.00;;;;;;;;;;5034009;28;20485;-60
2021/08/06 07:11:38;;;;;;;5.78;3.35;;;;;;;;;;5037052;28;21003;-58
2021/08/06 07:14:08;;;;;;;7.07;3.22;;;;;;;;;;5044698;28;20486;-59
2021/08/06 07:16:35;;;;;;;6.00;3.75;;;;;;;;;;5039261;28;20127;-59
2021/08/06 07:19:06;;;;;;;6.70;3.85;;;;;;;;;;5035781;28;20789;-58
2021/08/06 07:21:33;;;;;;;9.00;3.85;;;;;;;;;;5037854;28;20033;-59
2021/08/06 07:24:04;;;;;;;8.55;4.20;;;;;;;;;;5038768;28;21023;-58
2021/08/06 07:26:30;;;;;;;7.30;4.35;;;;;;;;;;5041536;28;20072;-58
2021/08/06 07:28:55;;;;;;;6.03;3.80;;;;;;;;;;5037993;28;20119;-58
2021/08/06 07:31:23;;;;;;;6.45;4.10;;;;;;;;;;5039881;28;20033;-58
2021/08/06 07:33:51;;;;;;;6.65;3.60;;;;;;;;;;5039416;28;20041;-58
2021/08/06 07:36:19;;;;;;;7.82;4.28;;;;;;;;;;5037829;28;20060;-58
2021/08/06 07:38:50;;;;;;;8.15;4.60;;;;;;;;;;5039629;28;20032;-58
2021/08/06 07:41:18;;;;;;;46.65;6.82;;;;;;;;;;5040711;28;20033;-58
2021/08/06 07:43:43;;;;;;;78.45;6.93;;;;;;;;;;5029603;28;20118;-57
2021/08/06 07:46:14;;;;;;;44.60;6.10;;;;;;;;;;5040305;28;20155;-58
2021/08/06 07:48:40;;;;;;;21.60;5.57;;;;;;;;;;5035867;28;20492;-59
2021/08/06 07:51:08;;;;;;;20.17;5.05;;;;;;;;;;5025707;28;20051;-59
2021/08/06 07:53:38;;;;;;;7.40;4.60;;;;;;;;;;5040055;28;20024;-59
2021/08/06 07:56:04;;;;;;;9.25;5.22;;;;;;;;;;5039893;28;20033;-58
2021/08/06 07:58:29;;;;;;;8.43;5.25;;;;;;;;;;5046539;28;20036;-58
2021/08/06 08:00:55;;;;;;;12.40;5.63;;;;;;;;;;5039875;28;20518;-58
2021/08/06 08:03:20;;;;;;;10.68;4.80;;;;;;;;;;5040204;28;20205;-57
2021/08/06 08:05:48;;;;;;;9.60;5.10;;;;;;;;;;5039621;28;20158;-58
2021/08/06 08:08:16;;;;;;;8.15;4.45;;;;;;;;;;5035506;28;20568;-58
2021/08/06 08:10:47;;;;;;;8.77;4.10;;;;;;;;;;5037360;28;20037;-58
2021/08/06 08:13:12;;;;;;;5.60;4.10;;;;;;;;;;5037129;28;20032;-57
2021/08/06 08:15:38;;;;;;;8.13;4.28;;;;;;;;;;5054349;28;20715;-57
2021/08/06 08:18:08;;;;;;;4.88;3.40;;;;;;;;;;5037720;28;20147;-58
2021/08/06 08:20:39;;;;;;;4.70;3.40;;;;;;;;;;5039743;28;20045;-57
2021/08/06 08:23:04;;;;;;;4.78;3.30;;;;;;;;;;5039111;28;20869;-57
2021/08/06 08:25:32;;;;;;;5.78;3.05;;;;;;;;;;5035600;28;20053;-56
2021/08/06 08:28:00;;;;;;;9.43;3.05;;;;;;;;;;5037433;28;20071;-59
2021/08/06 08:30:28;;;;;;;5.00;2.60;;;;;;;;;;5040571;28;20048;-57
2021/08/06 08:32:58;;;;;;;2.55;2.00;;;;;;;;;;5005646;28;20115;-57
2021/08/06 08:35:26;;;;;;;2.53;1.73;;;;;;;;;;5026061;28;20656;-58
2021/08/06 08:37:54;;;;;;;4.35;2.00;;;;;;;;;;5036827;28;20744;-58
2021/08/06 08:40:22;;;;;;;2.95;1.70;;;;;;;;;;5044737;28;20033;-59
2021/08/06 08:42:49;;;;;;;2.13;1.73;;;;;;;;;;5034193;28;20033;-58
2021/08/06 08:45:17;;;;;;;2.03;1.77;;;;;;;;;;5052297;28;20033;-58
2021/08/06 08:47:44;;;;;;;0.00;0.00;;;;;;;;;;5036737;28;20091;-58
2021/08/06 08:50:17;;;;;;;0.00;0.00;;;;;;;;;;5037506;28;20679;-59
2021/08/06 08:52:45;;;;;;;0.00;0.00;;;;;;;;;;5037016;28;20064;-58
2021/08/06 08:55:15;;;;;;;0.10;0.10;;;;;;;;;;5038484;28;20025;-58
2021/08/06 08:57:43;;;;;;;0.00;0.00;;;;;;;;;;5051818;28;20036;-58
2021/08/06 09:00:15;;;;;;;0.00;0.00;;;;;;;;;;5025345;28;20036;-59
2021/08/06 09:02:41;;;;;;;0.00;0.00;;;;;;;;;;5037399;28;20120;-58
2021/08/06 09:05:13;;;;;;;0.30;0.20;;;;;;;;;;5025540;28;20094;-58
2021/08/06 09:07:43;;;;;;;0.45;0.45;;;;;;;;;;5034227;28;20040;-59
2021/08/06 09:10:12;;;;;;;0.90;0.35;;;;;;;;;;5052179;28;20082;-57
2021/08/06 09:12:49;;;;;;;1.27;0.25;;;;;;;;;;5044809;28;20025;-58
2021/08/06 09:15:17;;;;;;;0.00;0.00;;;;;;;;;;5037011;28;20917;-58
2021/08/06 09:17:48;;;;;;;0.05;0.05;;;;;;;;;;5040086;28;20091;-58
2021/08/06 09:20:16;;;;;;;0.00;0.00;;;;;;;;;;5038143;28;20028;-59
2021/08/06 09:22:45;;;;;;;0.20;0.20;;;;;;;;;;5037544;28;20024;-60
2021/08/06 09:25:14;;;;;;;0.08;0.08;;;;;;;;;;5037018;28;20083;-61
2021/08/06 09:27:43;;;;;;;0.00;0.00;;;;;;;;;;5038017;28;20119;-59
2021/08/06 09:30:30;;;;;;;0.00;0.00;;;;;;;;;;5037414;28;20080;-59
2021/08/06 09:32:58;;;;;;;0.00;0.00;;;;;;;;;;5039626;28;20483;-62
2021/08/06 09:35:30;;;;;;;0.00;0.00;;;;;;;;;;5036452;28;20037;-59
2021/08/06 09:37:56;;;;;;;1.10;0.55;;;;;;;;;;5017951;28;20056;-59
2021/08/06 09:40:26;;;;;;;0.10;0.10;;;;;;;;;;5038104;28;20021;-61
2021/08/06 09:43:04;;;;;;;0.00;0.00;;;;;;;;;;5038509;28;20056;-59
2021/08/06 09:45:37;;;;;;;0.38;0.38;;;;;;;;;;5035681;28;20055;-61
2021/08/06 09:48:02;;;;;;;0.20;0.20;;;;;;;;;;5043770;28;20040;-60
2021/08/06 09:50:38;;;;;;;0.13;0.10;;;;;;;;;;5038231;28;20106;-61
2021/08/06 09:53:06;;;;;;;0.03;0.03;;;;;;;;;;5051868;28;20055;-61
2021/08/06 09:55:40;;;;;;;0.00;0.00;;;;;;;;;;5018057;28;20037;-60
2021/08/06 09:58:09;;;;;;;0.00;0.00;;;;;;;;;;5021680;28;20515;-60
2021/08/06 10:00:38;;;;;;;0.00;0.00;;;;;;;;;;5042813;28;20028;-61
2021/08/06 10:03:22;;;;;;;0.32;0.32;;;;;;;;;;5034297;28;21366;-60
2021/08/06 10:06:05;;;;;;;0.10;0.10;;;;;;;;;;5037354;28;22063;-59
2021/08/06 10:08:33;;;;;;;0.13;0.13;;;;;;;;;;5036370;28;20025;-59
2021/08/06 10:10:59;;;;;;;0.00;0.00;;;;;;;;;;5035118;28;20029;-59
2021/08/06 10:13:25;;;;;;;0.03;0.00;;;;;;;;;;5037569;28;20508;-59
2021/08/06 10:15:51;;;;;;;0.10;0.10;;;;;;;;;;5038261;28;20581;-60
2021/08/06 10:18:18;;;;;;;0.00;0.00;;;;;;;;;;5036245;28;20180;-59
2021/08/06 10:20:47;;;;;;;0.08;0.08;;;;;;;;;;5045032;28;20033;-60
2021/08/06 10:23:15;;;;;;;0.00;0.00;;;;;;;;;;5037387;28;20112;-59
2021/08/06 10:25:41;;;;;;;0.00;0.00;;;;;;;;;;5035568;28;20063;-60
2021/08/06 10:28:07;;;;;;;0.00;0.00;;;;;;;;;;5037248;28;20028;-59
2021/08/06 10:30:34;;;;;;;0.00;0.00;;;;;;;;;;5026939;28;20037;-60
2021/08/06 10:33:12;;;;;;;0.00;0.00;;;;;;;;;;5038498;28;20037;-61
2021/08/06 10:35:45;;;;;;;0.00;0.00;;;;;;;;;;5044660;28;20078;-61
2021/08/06 10:38:13;;;;;;;0.00;0.00;;;;;;;;;;5025923;28;20032;-62
2021/08/06 10:40:43;;;;;;;0.00;0.00;;;;;;;;;;5037172;28;20392;-60
2021/08/06 10:43:09;;;;;;;0.00;0.00;;;;;;;;;;5034231;28;20860;-61
2021/08/06 10:45:47;;;;;;;0.20;0.20;;;;;;;;;;5038597;28;20032;-59
2021/08/06 10:48:31;;;;;;;0.00;0.00;;;;;;;;;;5023097;28;20036;-62
2021/08/06 10:51:12;;;;;;;0.00;0.00;;;;;;;;;;5035471;28;20041;-61
2021/08/06 10:53:38;;;;;;;0.60;0.10;;;;;;;;;;5025354;28;20088;-61
2021/08/06 10:56:16;;;;;;;0.03;0.03;;;;;;;;;;5033707;28;20099;-61
2021/08/06 10:58:54;;;;;;;0.00;0.00;;;;;;;;;;5041687;28;20036;-61
2021/08/06 11:01:24;;;;;;;0.00;0.00;;;;;;;;;;5041840;28;20025;-61
2021/08/06 11:03:53;;;;;;;0.00;0.00;;;;;;;;;;5022913;28;21981;-61
2021/08/06 11:06:38;;;;;;;0.00;0.00;;;;;;;;;;5045495;28;20029;-61
2021/08/06 11:09:29;;;;;;;0.00;0.00;;;;;;;;;;5041113;28;20024;-61
2021/08/06 11:11:56;;;;;;;0.00;0.00;;;;;;;;;;5044581;28;20500;-61
2021/08/06 11:14:32;;;;;;;0.10;0.10;;;;;;;;;;5041451;28;20112;-61
2021/08/06 11:17:00;;;;;;;;;;;;;;;;;;5033918;28;20041;-61
2021/08/06 11:19:35;;;;;;;0.10;0.10;;;;;;;;;;5032512;28;19952;-61
2021/08/06 11:22:05;;;;;;;0.00;0.00;;;;;;;;;;5054608;28;20033;-61
2021/08/06 11:24:41;;;;;;;0.00;0.00;;;;;;;;;;5041009;28;20080;-61
2021/08/06 11:27:09;;;;;;;0.00;0.00;;;;;;;;;;5042542;28;20067;-62
2021/08/06 11:29:34;;;;;;;0.00;0.00;;;;;;;;;;5043240;28;20020;-63
2021/08/06 11:32:07;;;;;;;0.10;0.10;;;;;;;;;;5026716;28;20037;-63
2021/08/06 11:35:10;;;;;;;0.00;0.00;;;;;;;;;;5042690;28;20030;-63
2021/08/06 11:37:48;;;;;;;0.00;0.00;;;;;;;;;;5004304;28;20048;-61
2021/08/06 11:40:14;;;;;;;0.20;0.20;;;;;;;;;;5041439;28;20952;-61
2021/08/06 11:42:40;;;;;;;0.00;0.00;;;;;;;;;;5029367;28;20025;-62
2021/08/06 11:45:12;;;;;;;0.00;0.00;;;;;;;;;;5043015;28;20038;-62
2021/08/06 11:47:44;;;;;;;0.00;0.00;;;;;;;;;;5043235;28;20041;-62
2021/08/06 11:50:15;;;;;;;0.00;0.00;;;;;;;;;;5059734;28;20058;-62
2021/08/06 11:52:48;;;;;;;0.13;0.13;;;;;;;;;;5057214;28;20081;-61
2021/08/06 11:55:16;;;;;;;0.00;0.00;;;;;;;;;;5040260;28;20059;-61
2021/08/06 11:57:46;;;;;;;0.00;0.00;;;;;;;;;;5057844;28;20042;-62
2021/08/06 12:00:14;;;;;;;0.00;0.00;;;;;;;;;;5041241;28;20028;-61
2021/08/06 12:02:40;;;;;;;0.00;0.00;;;;;;;;;;5041294;28;20048;-61
2021/08/06 12:05:22;;;;;;;0.00;0.00;;;;;;;;;;5043409;28;20063;-63
2021/08/06 12:07:47;;;;;;;0.00;0.00;;;;;;;;;;5023958;28;20155;-62
2021/08/06 12:10:15;;;;;;;0.00;0.00;;;;;;;;;;5039005;28;20025;-63
2021/08/06 12:12:42;;;;;;;0.00;0.00;;;;;;;;;;5036951;28;20025;-60
2021/08/06 12:15:24;;;;;;;0.00;0.00;;;;;;;;;;5036630;28;20406;-60
2021/08/06 12:18:30;;;;;;;0.00;0.00;;;;;;;;;;5023028;28;22052;-62
2021/08/06 12:21:00;;;;;;;0.00;0.00;;;;;;;;;;4983552;28;20034;-62
2021/08/06 12:23:28;;;;;;;0.00;0.00;;;;;;;;;;4950699;28;20053;-62
2021/08/06 12:26:04;;;;;;;0.00;0.00;;;;;;;;;;5011658;28;20519;-61
2021/08/06 12:28:30;;;;;;;0.00;0.00;;;;;;;;;;5039376;28;20067;-63
2021/08/06 12:31:06;;;;;;;0.00;0.00;;;;;;;;;;5039316;28;20033;-61
2021/08/06 12:33:32;;;;;;;0.00;0.00;;;;;;;;;;5041197;28;20388;-61
2021/08/06 12:36:15;;;;;;;0.00;0.00;;;;;;;;;;5036992;28;20098;-62
2021/08/06 12:38:43;;;;;;;0.00;0.00;;;;;;;;;;5039283;28;20021;-61
2021/08/06 12:41:29;;;;;;;0.00;0.00;;;;;;;;;;5034859;28;20031;-61
2021/08/06 12:44:11;;;;;;;0.45;0.15;;;;;;;;;;5051484;28;20033;-61
2021/08/06 12:46:37;;;;;;;0.32;0.10;;;;;;;;;;5050894;28;20602;-63
2021/08/06 12:49:09;;;;;;;0.00;0.00;;;;;;;;;;5032006;28;20102;-63
2021/08/06 12:51:35;;;;;;;0.38;0.38;;;;;;;;;;5033332;28;20863;-64
2021/08/06 12:54:01;;;;;;;0.68;0.38;;;;;;;;;;5034216;28;20036;-63
2021/08/06 12:56:47;;;;;;;0.10;0.10;;;;;;;;;;5024151;28;21125;-63
2021/08/06 12:59:18;;;;;;;0.28;0.28;;;;;;;;;;5035372;28;20033;-63
2021/08/06 13:01:44;;;;;;;0.00;0.00;;;;;;;;;;5036267;28;20036;-62
2021/08/06 13:04:10;;;;;;;0.00;0.00;;;;;;;;;;5035967;28;20095;-64
2021/08/06 13:06:48;;;;;;;0.00;0.00;;;;;;;;;;5034368;28;20159;-63
2021/08/06 13:09:33;;;;;;;0.05;0.05;;;;;;;;;;5036435;28;20052;-63
2021/08/06 13:12:12;;;;;;;0.30;0.17;;;;;;;;;;5032735;28;20120;-63
2021/08/06 13:14:39;;;;;;;0.10;0.10;;;;;;;;;;5036726;28;20029;-63
2021/08/06 13:17:06;;;;;;;0.00;0.00;;;;;;;;;;5034484;28;20407;-64
2021/08/06 13:19:32;;;;;;;0.15;0.15;;;;;;;;;;5034456;28;20036;-63
2021/08/06 13:22:02;;;;;;;0.13;0.13;;;;;;;;;;5034177;28;20967;-63
2021/08/06 13:24:28;;;;;;;0.25;0.25;;;;;;;;;;5035518;28;20028;-63
2021/08/06 13:26:55;;;;;;;0.10;0.10;;;;;;;;;;5036010;28;20101;-64
2021/08/06 13:29:20;;;;;;;0.00;0.00;;;;;;;;;;5035005;28;20048;-64
2021/08/06 13:31:49;;;;;;;0.00;0.00;;;;;;;;;;5038454;28;20568;-64
2021/08/06 13:34:17;;;;;;;0.10;0.10;;;;;;;;;;5037131;28;20032;-64
2021/08/06 13:36:45;;;;;;;0.00;0.00;;;;;;;;;;5031917;28;20679;-63
2021/08/06 13:39:13;;;;;;;0.10;0.10;;;;;;;;;;5050398;28;20033;-62
2021/08/06 13:41:39;;;;;;;0.20;0.20;;;;;;;;;;5033357;28;20028;-63
2021/08/06 13:44:06;;;;;;;0.00;0.00;;;;;;;;;;5026623;28;21670;-63
2021/08/06 13:46:33;;;;;;;0.00;0.00;;;;;;;;;;5036969;28;20476;-63
2021/08/06 13:49:02;;;;;;;0.00;0.00;;;;;;;;;;5017441;28;20138;-62
2021/08/06 13:51:28;;;;;;;0.10;0.00;;;;;;;;;;5037228;28;20060;-62
2021/08/06 13:53:54;;;;;;;0.00;0.00;;;;;;;;;;5035702;28;20051;-63
2021/08/06 13:56:20;;;;;;;0.00;0.00;;;;;;;;;;5039130;28;20058;-62
2021/08/06 13:58:45;;;;;;;0.00;0.00;;;;;;;;;;5036098;28;20504;-62
2021/08/06 14:01:18;;;;;;;0.03;0.00;;;;;;;;;;5031353;28;20032;-62
2021/08/06 14:03:43;;;;;;;0.00;0.00;;;;;;;;;;5041563;28;20036;-63
2021/08/06 14:06:13;;;;;;;0.08;0.08;;;;;;;;;;5034762;28;20032;-63
2021/08/06 14:08:46;;;;;;;0.00;0.00;;;;;;;;;;5032616;28;20032;-63
2021/08/06 14:11:14;;;;;;;0.00;0.00;;;;;;;;;;5039732;28;20037;-64
2021/08/06 14:13:40;;;;;;;0.13;0.13;;;;;;;;;;5037273;28;20075;-63
2021/08/06 14:16:08;;;;;;;0.00;0.00;;;;;;;;;;5036489;28;20040;-61
2021/08/06 14:18:34;;;;;;;0.00;0.00;;;;;;;;;;5033713;28;20025;-63
2021/08/06 14:21:07;;;;;;;0.10;0.10;;;;;;;;;;5036272;28;20114;-62
2021/08/06 14:23:33;;;;;;;0.05;0.05;;;;;;;;;;5013382;28;20711;-63
2021/08/06 14:26:00;;;;;;;0.22;0.22;;;;;;;;;;5036439;28;20058;-63
2021/08/06 14:28:28;;;;;;;0.00;0.00;;;;;;;;;;5033914;28;20024;-62
2021/08/06 14:30:57;;;;;;;0.08;0.08;;;;;;;;;;5033648;28;20029;-62
2021/08/06 14:33:23;;;;;;;0.00;0.00;;;;;;;;;;5034135;28;20032;-62
2021/08/06 14:35:54;;;;;;;0.22;0.22;;;;;;;;;;5032888;28;20106;-63
2021/08/06 14:38:22;;;;;;;0.10;0.10;;;;;;;;;;5033373;28;22194;-62
2021/08/06 14:40:52;;;;;;;1.35;0.93;;;;;;;;;;5036637;28;20045;-63
2021/08/06 14:43:18;;;;;;;4.60;0.15;;;;;;;;;;5034466;28;20040;-62